Quinhagak Airport

About
Name: Quinhagak Airport
Identifier:  KWN/PAQH
Serves:  Quinhagak, Alaska
Owner:  Native Village of Kwinhagak
Public/Private:  Public
Local Time:  25. Aug 05:54 AKDT
Description: Quinhagak Airport, is a public-use airport located two nautical miles east of the central business district of Quinhagak, a city in the Bethel Census Area of the U.S. state of Alaska. It is also known as Kwinhagak Airport.
Source: Wikipedia
Location
Runways
Identifier Length (m/ft) Surface
12/30 4,000/4,000 Gravel
Statistics
Flights per Day:
1 flights
Distance: 85km (53mi)
Flights delayed:
90% (0 flights per day delayed)
Delay Average: 1321 minutes
Current Weather
 7 C (Humidity: 100%)
  7kt (12km/h / 8mph) from 340°
  Scattered clouds at 200 feet (60 meter)
  4km (3 mi.)
 Mist
 METAR PAQH 251302Z AUTO 34007KT 3SM BR SCT002 07/07 A2994 RMK AO2

Current Flights

Arrivals
Number Arrival From Airline
 GV222 17:50  Eek Grant Aviation

Current Delays

Departures
N/A
Arrivals
N/A

Destinations

Top Destinations
Airport Flights
per week
Seats
per week
  Bethel (BET) 0 - 0 0
  Eek (EEK) 0 - 0 0

Airlines & Planes

Top Airlines
Airline Flights
per Day
Seats
per Day
Ravn Alaska 0 -
Top Plane Types
Model Flights Seats
Cessna C208 0.3/day - 0